Time;durP1;ratioP1;P1;durP2;ratioP2;P2;SDS_P1;SDS_P2;PMS_P1;PMS_P2;Temp;Humidity;BMP_temperature;BMP_pressure;BME280_temperature;BME280_humidity;BME280_pressure;Samples;Min_cycle;Max_cycle;Signal;HPM_P1;HPM_P2
2021/11/30 00:01:49;;;;;;;1.00;1.00;;;-8.60;99.90;;;;;;5032985;28;20209;-70
2021/11/30 00:04:16;;;;;;;0.80;0.80;;;-8.60;99.90;;;;;;5034277;28;20202;-70
2021/11/30 00:06:43;;;;;;;0.90;0.90;;;-8.60;99.90;;;;;;5034495;28;20731;-70
2021/11/30 00:12:10;;;;;;;0.97;0.97;;;-8.70;99.90;;;;;;4998891;28;20646;-70
2021/11/30 00:14:37;;;;;;;5.90;3.37;;;-8.90;99.90;;;;;;5032804;28;20224;-70
2021/11/30 00:17:04;;;;;;;0.93;0.93;;;-8.80;99.90;;;;;;5033334;28;20678;-70
2021/11/30 00:19:30;;;;;;;1.00;1.00;;;-8.80;99.90;;;;;;5034001;28;20213;-70
2021/11/30 00:21:56;;;;;;;0.90;0.90;;;-8.80;99.90;;;;;;5032600;28;20237;-70
2021/11/30 00:24:27;;;;;;;0.90;0.90;;;-8.80;99.90;;;;;;5014712;28;20218;-69
2021/11/30 00:26:52;;;;;;;0.90;0.90;;;-8.80;99.90;;;;;;5033936;28;20217;-70
2021/11/30 00:29:18;;;;;;;1.00;1.00;;;-8.80;99.90;;;;;;5032734;28;20282;-70
2021/11/30 00:31:44;;;;;;;1.00;1.00;;;-8.70;99.90;;;;;;5032566;28;20296;-70
2021/11/30 00:34:09;;;;;;;1.00;1.00;;;-8.70;99.90;;;;;;5032538;28;20206;-69
2021/11/30 00:36:35;;;;;;;0.90;0.90;;;-8.70;99.90;;;;;;5032395;28;20669;-70
2021/11/30 00:39:01;;;;;;;1.00;1.00;;;-8.60;99.90;;;;;;5015902;28;20296;-70
2021/11/30 00:41:27;;;;;;;1.00;1.00;;;-8.60;99.90;;;;;;5032024;28;20285;-69
2021/11/30 00:43:54;;;;;;;0.80;0.80;;;-8.70;99.90;;;;;;5014526;28;20213;-69
2021/11/30 00:46:31;;;;;;;0.90;0.90;;;-8.60;99.90;;;;;;5014242;28;20296;-70
2021/11/30 00:48:57;;;;;;;0.80;0.80;;;-8.60;99.90;;;;;;5032397;28;20214;-69
2021/11/30 00:51:23;;;;;;;1.00;1.00;;;-8.50;99.90;;;;;;5033478;28;20716;-69
2021/11/30 00:53:51;;;;;;;0.93;0.93;;;-8.50;99.90;;;;;;5032338;28;20202;-69
2021/11/30 00:56:18;;;;;;;1.00;1.00;;;-8.50;99.90;;;;;;5032175;28;20279;-69
2021/11/30 00:58:45;;;;;;;1.10;1.10;;;-8.50;99.90;;;;;;5032025;28;20206;-70
2021/11/30 01:01:11;;;;;;;1.00;1.00;;;-8.50;99.90;;;;;;5033224;28;20541;-69
2021/11/30 01:03:38;;;;;;;1.10;1.10;;;-8.50;99.90;;;;;;5032012;28;20331;-69
2021/11/30 01:06:03;;;;;;;1.33;1.30;;;-8.50;99.90;;;;;;5031269;28;20213;-69
2021/11/30 01:08:29;;;;;;;0.90;0.90;;;-8.50;99.90;;;;;;5031581;28;20244;-71
2021/11/30 01:10:55;;;;;;;0.90;0.90;;;-8.50;99.90;;;;;;4993561;28;20223;-69
2021/11/30 01:13:21;;;;;;;1.00;1.00;;;-8.50;99.90;;;;;;4993443;28;20204;-69
2021/11/30 01:15:47;;;;;;;1.00;1.00;;;-8.60;99.90;;;;;;4992670;28;20203;-69
2021/11/30 01:18:13;;;;;;;1.00;1.00;;;-8.50;99.90;;;;;;4993599;28;20613;-69
2021/11/30 01:20:39;;;;;;;1.00;1.00;;;-8.50;99.90;;;;;;4992436;28;20615;-70
2021/11/30 01:23:05;;;;;;;0.90;0.90;;;-8.50;99.90;;;;;;4992371;28;20207;-69
2021/11/30 01:25:32;;;;;;;0.90;0.90;;;-8.40;99.90;;;;;;4991048;28;20761;-69
2021/11/30 01:27:58;;;;;;;1.00;1.00;;;-8.40;99.90;;;;;;4990912;28;20252;-69
2021/11/30 01:30:24;;;;;;;0.90;0.90;;;-8.50;99.90;;;;;;4993435;28;20207;-69
2021/11/30 01:32:50;;;;;;;0.90;0.90;;;-8.40;99.90;;;;;;4992295;28;20226;-69
2021/11/30 01:35:18;;;;;;;0.90;0.90;;;-8.40;99.90;;;;;;4992216;28;20235;-69
2021/11/30 01:37:45;;;;;;;1.10;1.10;;;-8.40;99.90;;;;;;4993399;28;20204;-69
2021/11/30 01:40:14;;;;;;;1.00;1.00;;;-8.40;99.90;;;;;;4990559;28;20230;-69
2021/11/30 01:42:44;;;;;;;0.90;0.90;;;-8.40;99.90;;;;;;4991962;28;20671;-69
2021/11/30 01:45:19;;;;;;;5.23;2.80;;;-8.30;99.90;;;;;;4992315;28;20254;-69
2021/11/30 01:50:19;;;;;;;0.90;0.90;;;-8.20;99.90;;;;;;4991882;28;20195;-69
2021/11/30 01:52:48;;;;;;;0.90;0.90;;;-8.20;99.90;;;;;;4992061;28;20208;-70
2021/11/30 01:55:13;;;;;;;0.90;0.90;;;-8.20;99.90;;;;;;4991885;28;20223;-69
2021/11/30 01:57:40;;;;;;;0.97;0.97;;;-8.20;99.90;;;;;;4991808;28;20239;-70
2021/11/30 02:00:06;;;;;;;1.00;1.00;;;-8.10;99.90;;;;;;4990691;28;20275;-69
2021/11/30 02:02:33;;;;;;;0.90;0.90;;;-8.10;99.90;;;;;;4991958;28;20203;-69
2021/11/30 02:04:58;;;;;;;0.90;0.90;;;-8.10;99.90;;;;;;4991692;28;20720;-70
2021/11/30 02:07:24;;;;;;;1.13;1.10;;;-8.10;99.90;;;;;;4991474;28;20211;-70
2021/11/30 02:09:50;;;;;;;0.90;0.90;;;-8.00;99.90;;;;;;4999343;28;20757;-69
2021/11/30 02:12:16;;;;;;;0.80;0.80;;;-8.00;99.90;;;;;;5010084;28;20206;-69
2021/11/30 02:14:45;;;;;;;1.00;1.00;;;-8.10;99.90;;;;;;5009687;28;20254;-68
2021/11/30 02:17:13;;;;;;;0.90;0.90;;;-8.00;99.90;;;;;;5012079;28;20603;-69
2021/11/30 02:19:53;;;;;;;0.90;0.90;;;-8.00;99.90;;;;;;5013916;28;20210;-69
2021/11/30 02:22:19;;;;;;;1.00;1.00;;;-8.00;99.90;;;;;;5016490;28;20213;-69
2021/11/30 02:24:45;;;;;;;0.90;0.90;;;-7.90;99.90;;;;;;5015404;28;20658;-69
2021/11/30 02:27:11;;;;;;;1.00;1.00;;;-8.00;99.90;;;;;;5015126;28;20628;-69
2021/11/30 02:29:37;;;;;;;0.90;0.90;;;-8.00;99.90;;;;;;5015026;28;20203;-72
2021/11/30 02:32:03;;;;;;;0.80;0.80;;;-8.00;99.90;;;;;;5013804;28;20630;-69
2021/11/30 02:34:29;;;;;;;0.90;0.90;;;-8.00;99.90;;;;;;5013620;28;20705;-69
2021/11/30 02:37:03;;;;;;;0.90;0.90;;;-8.10;99.90;;;;;;5015025;28;20520;-69
2021/11/30 02:39:29;;;;;;;1.43;1.33;;;-8.10;99.90;;;;;;5014692;28;20550;-69
2021/11/30 02:41:57;;;;;;;0.90;0.90;;;-8.00;99.90;;;;;;5015054;28;20203;-69
2021/11/30 02:44:25;;;;;;;0.93;0.93;;;-8.00;99.90;;;;;;5016237;28;20207;-70
2021/11/30 02:46:54;;;;;;;1.07;1.07;;;-8.00;99.90;;;;;;5014813;28;20548;-71
2021/11/30 02:49:22;;;;;;;0.93;0.93;;;-8.00;99.90;;;;;;5014585;28;20210;-70
2021/11/30 02:51:52;;;;;;;0.90;0.90;;;-8.00;99.90;;;;;;5014854;28;20282;-69
2021/11/30 02:54:20;;;;;;;0.90;0.90;;;-8.00;99.90;;;;;;5014793;28;20642;-69
2021/11/30 02:56:55;;;;;;;1.00;1.00;;;-8.00;99.90;;;;;;5013444;28;20206;-69
2021/11/30 02:59:22;;;;;;;0.90;0.90;;;-7.90;99.90;;;;;;5014362;28;20631;-70
2021/11/30 03:02:09;;;;;;;0.90;0.90;;;-7.90;99.90;;;;;;5012153;28;20710;-69
2021/11/30 03:04:36;;;;;;;1.00;1.00;;;-7.90;99.90;;;;;;5014493;28;20195;-69
2021/11/30 03:07:02;;;;;;;0.90;0.90;;;-7.90;99.90;;;;;;5014335;28;20214;-69
2021/11/30 03:09:27;;;;;;;0.90;0.90;;;-8.00;99.90;;;;;;5018751;28;20222;-69
2021/11/30 03:11:54;;;;;;;0.90;0.90;;;-8.00;99.90;;;;;;5034237;28;20202;-69
2021/11/30 03:14:20;;;;;;;3.37;2.03;;;-8.00;99.90;;;;;;5035389;28;20216;-69
2021/11/30 03:16:47;;;;;;;0.83;0.83;;;-8.00;99.90;;;;;;5035583;28;20224;-69
2021/11/30 03:19:15;;;;;;;0.80;0.80;;;-7.90;99.90;;;;;;5035033;28;20213;-69
2021/11/30 03:21:41;;;;;;;0.90;0.90;;;-7.90;99.90;;;;;;5016578;28;20198;-69
2021/11/30 03:24:07;;;;;;;0.87;0.87;;;-7.90;99.90;;;;;;5015311;28;20359;-69
2021/11/30 03:26:32;;;;;;;1.40;1.30;;;-7.80;99.90;;;;;;5033611;28;20208;-69
2021/11/30 03:28:58;;;;;;;1.00;1.00;;;-7.70;99.90;;;;;;5034054;28;20198;-69
2021/11/30 03:31:36;;;;;;;0.97;0.97;;;-7.70;99.90;;;;;;5033671;28;20295;-69
2021/11/30 03:34:10;;;;;;;0.90;0.90;;;-7.70;99.90;;;;;;5035032;28;20206;-69
2021/11/30 03:36:38;;;;;;;0.90;0.90;;;-7.70;99.90;;;;;;5033714;28;20206;-69
2021/11/30 03:39:08;;;;;;;1.00;1.00;;;-7.60;99.90;;;;;;5017133;28;20213;-69
2021/11/30 03:41:34;;;;;;;0.90;0.90;;;-7.60;99.90;;;;;;5015417;28;20669;-69
2021/11/30 03:44:02;;;;;;;0.97;0.97;;;-7.50;99.90;;;;;;5034881;28;20210;-71
2021/11/30 03:46:30;;;;;;;0.90;0.90;;;-7.50;99.90;;;;;;5034689;28;20638;-69
2021/11/30 03:48:55;;;;;;;0.90;0.90;;;-7.60;99.90;;;;;;5033542;28;20498;-70
2021/11/30 03:51:21;;;;;;;0.83;0.83;;;-7.50;99.90;;;;;;5015357;28;20256;-69
2021/11/30 03:53:47;;;;;;;0.80;0.80;;;-7.50;99.90;;;;;;5034802;28;20241;-69
2021/11/30 03:56:13;;;;;;;1.00;1.00;;;-7.40;99.90;;;;;;5015428;28;20214;-69
2021/11/30 03:58:38;;;;;;;0.90;0.90;;;-7.40;99.90;;;;;;5015472;28;20198;-69
2021/11/30 04:01:04;;;;;;;2.40;2.13;;;-7.40;99.90;;;;;;5014475;28;20302;-70
2021/11/30 04:03:33;;;;;;;0.90;0.90;;;-7.40;99.90;;;;;;5032831;28;20288;-68
2021/11/30 04:06:00;;;;;;;0.90;0.90;;;-7.40;99.90;;;;;;5014800;28;20210;-68
2021/11/30 04:08:25;;;;;;;1.00;1.00;;;-7.30;99.90;;;;;;5034100;28;20696;-68
2021/11/30 04:10:51;;;;;;;0.90;0.90;;;-7.30;99.90;;;;;;5032870;28;20249;-68
2021/11/30 04:13:17;;;;;;;0.97;0.97;;;-7.20;99.90;;;;;;5032837;28;20202;-67
2021/11/30 04:15:43;;;;;;;0.97;0.97;;;-7.20;99.90;;;;;;5032819;28;20209;-68
2021/11/30 04:18:08;;;;;;;0.80;0.80;;;-7.10;99.90;;;;;;5034131;28;20719;-68
2021/11/30 04:20:34;;;;;;;1.00;1.00;;;-7.10;99.90;;;;;;5034026;28;20224;-70
2021/11/30 04:23:00;;;;;;;1.00;1.00;;;-7.10;99.90;;;;;;5032952;28;20567;-68
2021/11/30 04:25:26;;;;;;;0.90;0.90;;;-7.10;99.90;;;;;;5032902;28;20281;-68
2021/11/30 04:27:51;;;;;;;0.90;0.90;;;-7.10;99.90;;;;;;5032580;28;20637;-69
2021/11/30 04:30:18;;;;;;;1.00;1.00;;;-7.00;99.90;;;;;;5033685;28;20210;-68
2021/11/30 04:32:43;;;;;;;0.90;0.90;;;-7.00;99.90;;;;;;5014414;28;20225;-68
2021/11/30 04:35:11;;;;;;;0.90;0.90;;;-6.90;99.90;;;;;;5032395;28;20261;-67
2021/11/30 04:37:37;;;;;;;0.90;0.90;;;-6.90;99.90;;;;;;5014393;28;20206;-68
2021/11/30 04:40:06;;;;;;;0.83;0.83;;;-7.00;99.90;;;;;;5031904;28;20202;-68
2021/11/30 04:42:32;;;;;;;0.90;0.90;;;-7.00;99.90;;;;;;5032085;28;20280;-67
2021/11/30 04:45:05;;;;;;;0.90;0.90;;;-7.10;99.90;;;;;;5014385;28;20202;-68
2021/11/30 04:47:34;;;;;;;1.00;1.00;;;-7.10;99.90;;;;;;5033458;28;20685;-68
2021/11/30 04:50:06;;;;;;;0.97;0.97;;;-7.20;99.90;;;;;;5032233;28;20198;-67
2021/11/30 04:52:33;;;;;;;0.77;0.77;;;-7.30;99.90;;;;;;5031961;28;20720;-67
2021/11/30 04:55:00;;;;;;;0.90;0.90;;;-7.40;99.90;;;;;;5032160;28;20261;-68
2021/11/30 04:57:25;;;;;;;1.00;1.00;;;-7.40;99.90;;;;;;5031926;28;20675;-68
2021/11/30 04:59:51;;;;;;;0.90;0.90;;;-7.40;99.90;;;;;;5032131;28;20202;-67
2021/11/30 05:02:18;;;;;;;0.90;0.90;;;-7.50;99.90;;;;;;5031576;28;20288;-68
2021/11/30 05:04:46;;;;;;;0.83;0.83;;;-7.60;99.90;;;;;;5031809;28;20217;-68
2021/11/30 05:07:14;;;;;;;0.90;0.90;;;-7.60;99.90;;;;;;5015211;28;20245;-68
2021/11/30 05:09:40;;;;;;;1.00;1.00;;;-7.70;99.90;;;;;;5032921;28;20221;-74
2021/11/30 05:12:06;;;;;;;1.00;1.00;;;-7.70;99.90;;;;;;5014206;28;20284;-71
2021/11/30 05:14:32;;;;;;;0.90;0.90;;;-7.80;99.90;;;;;;5031799;28;20595;-69
2021/11/30 05:16:57;;;;;;;2.77;2.03;;;-7.80;99.90;;;;;;5015754;28;20295;-69
2021/11/30 05:19:23;;;;;;;0.90;0.90;;;-7.80;99.90;;;;;;5030832;28;20577;-70
2021/11/30 05:21:49;;;;;;;0.90;0.90;;;-7.80;99.90;;;;;;5015407;28;20209;-69
2021/11/30 05:24:15;;;;;;;1.20;1.20;;;-7.90;99.90;;;;;;5032961;28;20657;-69
2021/11/30 05:26:41;;;;;;;0.93;0.93;;;-8.00;99.90;;;;;;5031320;28;20692;-69
2021/11/30 05:29:07;;;;;;;1.20;1.20;;;-8.00;99.90;;;;;;5013688;28;20210;-69
2021/11/30 05:31:33;;;;;;;3.10;2.40;;;-8.10;99.90;;;;;;5013489;28;20198;-69
2021/11/30 05:33:59;;;;;;;0.90;0.90;;;-8.10;99.90;;;;;;5031605;28;20305;-70
2021/11/30 05:36:25;;;;;;;0.90;0.90;;;-8.10;99.90;;;;;;5014669;28;20205;-70
2021/11/30 05:38:51;;;;;;;1.10;1.10;;;-8.20;99.90;;;;;;5031614;28;20198;-69
2021/11/30 05:41:17;;;;;;;0.90;0.90;;;-8.20;99.90;;;;;;5031060;28;20229;-70
2021/11/30 05:43:43;;;;;;;0.90;0.90;;;-8.30;99.90;;;;;;5032547;28;20665;-69
2021/11/30 05:46:09;;;;;;;0.97;0.97;;;-8.30;99.90;;;;;;5031502;28;20574;-69
2021/11/30 05:48:35;;;;;;;0.90;0.90;;;-8.30;99.90;;;;;;5013201;28;20576;-72
2021/11/30 05:51:02;;;;;;;0.90;0.90;;;-8.40;99.90;;;;;;5031418;28;20221;-70
2021/11/30 05:53:28;;;;;;;0.90;0.90;;;-8.40;99.90;;;;;;5012711;28;20198;-70
2021/11/30 05:55:56;;;;;;;0.90;0.90;;;-8.40;99.90;;;;;;5031453;28;20205;-71
2021/11/30 05:58:22;;;;;;;0.90;0.90;;;-8.40;99.90;;;;;;5012734;28;20672;-69
2021/11/30 06:00:49;;;;;;;0.90;0.90;;;-8.40;99.90;;;;;;5032436;28;20206;-70
2021/11/30 06:03:45;;;;;;;1.00;1.00;;;-8.40;99.90;;;;;;5031044;28;20202;-70
2021/11/30 06:06:11;;;;;;;1.00;1.00;;;-8.40;99.90;;;;;;5030996;28;20202;-70
2021/11/30 06:08:36;;;;;;;1.00;1.00;;;-8.40;99.90;;;;;;5030881;28;20579;-70
2021/11/30 06:11:02;;;;;;;0.90;0.90;;;-8.40;99.90;;;;;;5031043;28;20228;-70
2021/11/30 06:13:28;;;;;;;0.90;0.90;;;-8.40;99.90;;;;;;5031096;28;20288;-70
2021/11/30 06:15:53;;;;;;;1.00;1.00;;;-8.40;99.90;;;;;;5031169;28;20202;-70
2021/11/30 06:18:19;;;;;;;0.90;0.90;;;-8.40;99.90;;;;;;5030953;28;20226;-70
2021/11/30 06:20:47;;;;;;;0.90;0.90;;;-8.40;99.90;;;;;;5030783;28;20212;-69
2021/11/30 06:23:13;;;;;;;0.90;0.90;;;-8.40;99.90;;;;;;5032191;28;20596;-70
2021/11/30 06:25:39;;;;;;;0.90;0.90;;;-8.40;99.90;;;;;;5015892;28;20205;-70
2021/11/30 06:28:04;;;;;;;0.90;0.90;;;-8.40;99.90;;;;;;5032280;28;20210;-70
2021/11/30 06:30:30;;;;;;;1.00;1.00;;;-8.40;99.90;;;;;;5030727;28;20620;-69
2021/11/30 06:32:56;;;;;;;0.90;0.90;;;-8.40;99.90;;;;;;5031155;28;20204;-69
2021/11/30 06:35:21;;;;;;;0.90;0.90;;;-8.40;99.90;;;;;;5031030;28;20202;-71
2021/11/30 06:37:47;;;;;;;1.00;1.00;;;-8.40;99.90;;;;;;5031918;28;20276;-70
2021/11/30 06:40:13;;;;;;;0.90;0.90;;;-8.40;99.90;;;;;;5010756;28;20547;-69
2021/11/30 06:42:39;;;;;;;0.93;0.93;;;-8.40;99.90;;;;;;5030208;28;20665;-70
2021/11/30 06:45:05;;;;;;;1.00;1.00;;;-8.40;99.90;;;;;;5030740;28;20202;-70
2021/11/30 06:47:32;;;;;;;1.00;1.00;;;-8.40;99.90;;;;;;5030541;28;20229;-70
2021/11/30 06:49:57;;;;;;;0.93;0.93;;;-8.40;99.90;;;;;;5031021;28;20285;-70
2021/11/30 06:52:23;;;;;;;0.90;0.90;;;-8.40;99.90;;;;;;5013756;28;20301;-71
2021/11/30 06:54:54;;;;;;;0.93;0.93;;;-8.40;99.90;;;;;;5032024;28;20609;-71
2021/11/30 06:57:19;;;;;;;0.90;0.90;;;-8.40;99.90;;;;;;5031619;28;20226;-70
2021/11/30 06:59:45;;;;;;;0.97;0.97;;;-8.50;99.90;;;;;;5030673;28;20241;-70
2021/11/30 07:02:12;;;;;;;0.93;0.93;;;-8.50;99.90;;;;;;5031548;28;20293;-70
2021/11/30 07:04:43;;;;;;;0.90;0.90;;;-8.40;99.90;;;;;;5033446;28;20206;-70
2021/11/30 07:15:09;;;;;;;0.90;0.90;;;-8.50;99.90;;;;;;5034229;28;20729;-70
2021/11/30 07:17:35;;;;;;;1.00;1.00;;;-8.60;99.90;;;;;;5033947;28;20590;-70
2021/11/30 07:20:02;;;;;;;1.00;1.00;;;-8.50;99.90;;;;;;5034078;28;20198;-70
2021/11/30 07:22:28;;;;;;;0.93;0.93;;;-8.60;99.90;;;;;;5016005;28;20213;-71
2021/11/30 07:24:54;;;;;;;1.50;1.40;;;-8.50;99.90;;;;;;5033907;28;20206;-71
2021/11/30 07:27:20;;;;;;;1.20;1.13;;;-8.50;99.90;;;;;;5017067;28;20210;-70
2021/11/30 07:29:45;;;;;;;1.00;1.00;;;-8.50;99.90;;;;;;5035230;28;20286;-71
2021/11/30 07:32:11;;;;;;;1.00;1.00;;;-8.50;99.90;;;;;;5033664;28;20198;-71
2021/11/30 07:34:37;;;;;;;1.00;1.00;;;-8.50;99.90;;;;;;5033508;28;20244;-71
2021/11/30 07:37:04;;;;;;;1.20;1.20;;;-8.50;99.90;;;;;;5033818;28;20202;-70
2021/11/30 07:39:30;;;;;;;1.00;1.00;;;-8.50;99.90;;;;;;5034461;28;20288;-71
2021/11/30 07:41:56;;;;;;;1.10;1.10;;;-8.50;99.90;;;;;;5033572;28;20285;-71
2021/11/30 07:44:21;;;;;;;2.43;2.23;;;-8.50;99.90;;;;;;5033253;28;20263;-71
2021/11/30 07:46:47;;;;;;;1.70;1.60;;;-8.50;99.90;;;;;;5033288;28;20206;-69
2021/11/30 07:49:13;;;;;;;2.80;2.13;;;-8.50;99.90;;;;;;5015857;28;20198;-69
2021/11/30 07:51:40;;;;;;;0.90;0.90;;;-8.50;99.90;;;;;;5033634;28;20194;-70
2021/11/30 07:54:06;;;;;;;0.90;0.90;;;-8.50;99.90;;;;;;5032836;28;20616;-70
2021/11/30 07:56:32;;;;;;;1.37;1.30;;;-8.50;99.90;;;;;;5014682;28;20195;-70
2021/11/30 07:58:59;;;;;;;1.00;1.00;;;-8.50;99.90;;;;;;5015959;28;20344;-70
2021/11/30 08:01:25;;;;;;;1.50;1.40;;;-8.40;99.90;;;;;;5032834;28;20577;-70
2021/11/30 08:03:51;;;;;;;0.90;0.90;;;-8.40;99.90;;;;;;5033295;28;20218;-71
2021/11/30 08:06:17;;;;;;;0.90;0.90;;;-8.40;99.90;;;;;;5033320;28;20285;-70
2021/11/30 08:08:43;;;;;;;0.90;0.90;;;-8.40;99.90;;;;;;5033070;28;20721;-71
2021/11/30 08:11:09;;;;;;;1.00;1.00;;;-8.40;99.90;;;;;;5032821;28;20228;-70
2021/11/30 08:13:35;;;;;;;1.10;1.10;;;-8.40;99.90;;;;;;5032854;28;20202;-70
2021/11/30 08:16:01;;;;;;;1.00;1.00;;;-8.40;99.90;;;;;;5033707;28;20260;-70
2021/11/30 08:18:26;;;;;;;1.00;1.00;;;-8.40;99.90;;;;;;5034056;28;20214;-70
2021/11/30 08:20:52;;;;;;;2.37;2.17;;;-8.40;99.90;;;;;;5016204;28;20209;-70
2021/11/30 08:23:18;;;;;;;1.00;1.00;;;-8.30;99.90;;;;;;5032728;28;20210;-70
2021/11/30 08:25:45;;;;;;;1.10;1.10;;;-8.30;99.90;;;;;;5034080;28;20209;-70
2021/11/30 08:28:11;;;;;;;0.90;0.90;;;-8.30;99.90;;;;;;5016230;28;20661;-69
2021/11/30 08:30:37;;;;;;;0.90;0.90;;;-8.30;99.90;;;;;;5032520;28;20220;-70
2021/11/30 08:33:03;;;;;;;1.20;1.20;;;-8.30;99.90;;;;;;5032669;28;20224;-71
2021/11/30 08:35:29;;;;;;;0.83;0.83;;;-8.20;99.90;;;;;;5033705;28;20665;-71
2021/11/30 08:37:55;;;;;;;0.90;0.90;;;-8.30;99.90;;;;;;5016210;28;20232;-70
2021/11/30 08:40:21;;;;;;;1.43;1.33;;;-8.20;99.90;;;;;;5033612;28;20194;-71
2021/11/30 08:42:46;;;;;;;1.00;1.00;;;-8.30;99.90;;;;;;5032753;28;20224;-70
2021/11/30 08:45:12;;;;;;;0.90;0.90;;;-8.30;99.90;;;;;;5014986;28;20203;-69
2021/11/30 08:47:39;;;;;;;0.90;0.90;;;-8.20;99.90;;;;;;5032202;28;20308;-71
2021/11/30 08:50:08;;;;;;;1.20;1.20;;;-8.30;99.90;;;;;;5015702;28;20600;-70
2021/11/30 08:52:35;;;;;;;1.00;1.00;;;-8.30;99.90;;;;;;5032549;28;20229;-70
2021/11/30 08:55:00;;;;;;;0.90;0.90;;;-8.20;99.90;;;;;;5032338;28;20205;-70
2021/11/30 08:57:27;;;;;;;0.90;0.90;;;-8.30;99.90;;;;;;5014158;28;20207;-70
2021/11/30 08:59:54;;;;;;;0.90;0.90;;;-8.30;99.90;;;;;;5032266;28;20673;-69
2021/11/30 09:02:20;;;;;;;0.90;0.90;;;-8.30;99.90;;;;;;5031816;28;20202;-70
2021/11/30 09:04:47;;;;;;;0.90;0.90;;;-8.30;99.90;;;;;;5033294;28;20215;-70
2021/11/30 09:07:15;;;;;;;0.90;0.90;;;-8.30;99.90;;;;;;5033089;28;20524;-70
2021/11/30 09:09:43;;;;;;;0.90;0.90;;;-8.30;99.90;;;;;;5012615;28;20218;-69
2021/11/30 09:12:09;;;;;;;1.07;1.07;;;-8.30;99.90;;;;;;5033109;28;20240;-69
2021/11/30 09:14:35;;;;;;;0.90;0.90;;;-8.30;99.90;;;;;;5031841;28;20252;-70
2021/11/30 09:17:01;;;;;;;1.27;1.17;;;-8.30;99.90;;;;;;5013769;28;20265;-71
2021/11/30 09:19:27;;;;;;;1.00;1.00;;;-8.20;99.90;;;;;;5031548;28;20252;-70
2021/11/30 09:21:53;;;;;;;0.90;0.90;;;-8.20;99.90;;;;;;5031622;28;20687;-70
2021/11/30 09:24:19;;;;;;;1.00;1.00;;;-8.20;99.90;;;;;;5013852;28;20685;-69
2021/11/30 09:26:45;;;;;;;1.60;1.50;;;-8.10;99.90;;;;;;5030585;28;20198;-69
2021/11/30 09:29:11;;;;;;;0.90;0.90;;;-8.10;99.90;;;;;;5014582;28;20202;-70
2021/11/30 09:31:37;;;;;;;1.00;1.00;;;-8.00;99.90;;;;;;5030684;28;20560;-69
2021/11/30 09:34:04;;;;;;;1.30;1.20;;;-8.00;99.90;;;;;;5031179;28;20294;-70
2021/11/30 09:36:32;;;;;;;0.90;0.90;;;-7.90;99.90;;;;;;5032530;28;20199;-70
2021/11/30 09:38:59;;;;;;;0.90;0.90;;;-7.80;99.90;;;;;;5032768;28;20268;-70
2021/11/30 09:41:26;;;;;;;0.90;0.90;;;-7.80;99.90;;;;;;5032231;28;20209;-70
2021/11/30 09:43:51;;;;;;;0.80;0.80;;;-7.70;99.90;;;;;;5031370;28;20684;-69
2021/11/30 09:46:17;;;;;;;1.00;1.00;;;-7.60;99.90;;;;;;5031789;28;20301;-69
2021/11/30 09:48:43;;;;;;;0.80;0.80;;;-7.60;99.90;;;;;;5030862;28;20214;-70
2021/11/30 09:51:09;;;;;;;1.90;1.80;;;-7.50;99.90;;;;;;5032660;28;20612;-70
2021/11/30 09:53:35;;;;;;;0.90;0.90;;;-7.40;99.90;;;;;;5032329;28;20214;-70
2021/11/30 09:56:01;;;;;;;0.80;0.80;;;-7.40;99.90;;;;;;5032553;28;20650;-70
2021/11/30 09:58:28;;;;;;;0.90;0.90;;;-7.30;99.90;;;;;;5032484;28;20202;-69
2021/11/30 10:00:56;;;;;;;1.03;1.03;;;-7.30;99.90;;;;;;5031103;28;20677;-70
2021/11/30 10:03:23;;;;;;;0.90;0.90;;;-7.20;99.90;;;;;;5012998;28;20208;-70
2021/11/30 10:05:51;;;;;;;0.80;0.80;;;-7.20;99.90;;;;;;5030932;28;20210;-71
2021/11/30 10:08:30;;;;;;;0.90;0.90;;;-7.10;99.90;;;;;;5030904;28;20205;-70
2021/11/30 10:10:57;;;;;;;1.10;1.10;;;-7.10;99.90;;;;;;5030889;28;20703;-70
2021/11/30 10:13:24;;;;;;;0.93;0.93;;;-7.10;99.90;;;;;;5030962;28;20952;-71
2021/11/30 10:15:57;;;;;;;0.90;0.90;;;-7.10;99.90;;;;;;5013319;28;20641;-70
2021/11/30 10:18:30;;;;;;;0.90;0.90;;;-7.10;99.90;;;;;;5030801;28;20669;-70
2021/11/30 10:21:21;;;;;;;0.90;0.90;;;-7.10;99.90;;;;;;5031034;28;20202;-70
2021/11/30 10:24:08;;;;;;;0.90;0.90;;;-7.10;99.90;;;;;;5032302;28;20197;-70
2021/11/30 10:26:34;;;;;;;1.00;1.00;;;-7.00;99.90;;;;;;5012983;28;20649;-70
2021/11/30 10:29:07;;;;;;;1.20;1.20;;;-7.00;99.90;;;;;;5030884;28;20206;-70
2021/11/30 10:31:45;;;;;;;0.90;0.90;;;-6.90;99.90;;;;;;5030820;28;20267;-70
2021/11/30 10:34:12;;;;;;;1.00;1.00;;;-6.90;99.90;;;;;;5032381;28;20289;-68
2021/11/30 10:36:45;;;;;;;1.00;1.00;;;-6.80;99.90;;;;;;5030894;28;20905;-68
2021/11/30 10:39:24;;;;;;;1.50;1.40;;;-6.70;99.90;;;;;;5033186;28;20209;-68
2021/11/30 10:41:51;;;;;;;1.10;1.10;;;-6.70;99.90;;;;;;5034832;28;20674;-68
2021/11/30 10:44:31;;;;;;;0.90;0.90;;;-6.70;99.90;;;;;;5035904;28;20221;-68
2021/11/30 10:47:24;;;;;;;0.90;0.90;;;-6.70;99.90;;;;;;5035989;28;20206;-69
2021/11/30 10:49:53;;;;;;;1.00;1.00;;;-6.60;99.90;;;;;;5031949;28;20218;-68
2021/11/30 10:52:27;;;;;;;1.00;1.00;;;-6.60;99.90;;;;;;5016724;28;20287;-69
2021/11/30 10:55:04;;;;;;;1.00;1.00;;;-6.50;99.90;;;;;;5035991;28;20236;-69
2021/11/30 10:57:32;;;;;;;0.87;0.87;;;-6.50;99.90;;;;;;5017796;28;20205;-68
2021/11/30 11:00:19;;;;;;;0.90;0.90;;;-6.50;99.90;;;;;;5034671;28;20198;-68
2021/11/30 11:05:44;;;;;;;0.90;0.90;;;-6.60;99.90;;;;;;5034420;28;20677;-69
2021/11/30 11:08:19;;;;;;;0.90;0.90;;;-6.50;99.90;;;;;;5034277;28;20217;-68
2021/11/30 11:10:59;;;;;;;1.00;1.00;;;-6.50;99.90;;;;;;5034051;28;20290;-68
2021/11/30 11:13:30;;;;;;;1.30;1.23;;;-6.50;99.90;;;;;;5016366;28;20213;-68
2021/11/30 11:16:04;;;;;;;1.00;1.00;;;-6.50;99.90;;;;;;5034327;28;20307;-68
2021/11/30 11:18:38;;;;;;;0.83;0.83;;;-6.50;99.90;;;;;;5035482;28;20201;-68
2021/11/30 11:21:24;;;;;;;0.90;0.90;;;-6.50;99.90;;;;;;5016292;28;20285;-68
2021/11/30 11:24:09;;;;;;;0.90;0.90;;;-6.40;99.90;;;;;;5016370;28;20546;-68
2021/11/30 11:26:47;;;;;;;0.90;0.90;;;-6.40;99.90;;;;;;5033969;28;20277;-68
2021/11/30 11:29:21;;;;;;;0.87;0.87;;;-6.40;99.90;;;;;;5034097;28;20577;-68
2021/11/30 11:31:51;;;;;;;0.90;0.90;;;-6.40;99.90;;;;;;5034028;28;20606;-68
2021/11/30 11:34:19;;;;;;;1.00;1.00;;;-6.40;99.90;;;;;;5034064;28;20795;-68
2021/11/30 11:36:47;;;;;;;1.00;1.00;;;-6.40;99.90;;;;;;5035430;28;20202;-68
2021/11/30 11:39:18;;;;;;;1.73;1.63;;;-6.40;99.90;;;;;;5015944;28;20658;-68
2021/11/30 11:41:47;;;;;;;0.83;0.83;;;-6.40;99.90;;;;;;5031871;28;20206;-68
2021/11/30 11:44:13;;;;;;;0.90;0.90;;;-6.40;99.90;;;;;;5034059;28;20205;-68
2021/11/30 11:46:40;;;;;;;1.00;1.00;;;-6.30;99.90;;;;;;5033775;28;20204;-68
2021/11/30 11:49:10;;;;;;;1.00;1.00;;;-6.30;99.90;;;;;;5033624;28;20628;-68
2021/11/30 11:51:44;;;;;;;1.00;1.00;;;-6.30;99.90;;;;;;5032768;28;20206;-68
2021/11/30 11:54:31;;;;;;;1.00;1.00;;;-6.30;99.90;;;;;;5034988;28;20614;-68
2021/11/30 11:57:11;;;;;;;0.90;0.90;;;-6.20;99.90;;;;;;5033789;28;20202;-68
2021/11/30 11:59:44;;;;;;;1.00;1.00;;;-6.10;99.90;;;;;;5033612;28;20307;-68
2021/11/30 12:02:58;;;;;;;1.00;1.00;;;-6.00;99.90;;;;;;5033316;28;20210;-68
2021/11/30 12:05:39;;;;;;;1.00;1.00;;;-6.00;99.90;;;;;;4998693;28;20314;-68
2021/11/30 12:08:15;;;;;;;0.93;0.93;;;-5.90;99.90;;;;;;5016139;28;20313;-68
2021/11/30 12:10:41;;;;;;;0.90;0.90;;;-5.90;99.90;;;;;;5000108;28;20696;-68
2021/11/30 12:13:06;;;;;;;0.90;0.90;;;-5.90;99.90;;;;;;5033440;28;20213;-68
2021/11/30 12:15:53;;;;;;;1.00;1.00;;;-5.90;99.90;;;;;;5015474;28;20210;-68
2021/11/30 12:18:34;;;;;;;1.00;1.00;;;-5.90;99.90;;;;;;5033079;28;20232;-68
2021/11/30 12:21:12;;;;;;;1.00;1.00;;;-5.90;99.90;;;;;;5033003;28;20578;-68
2021/11/30 12:23:39;;;;;;;1.00;1.00;;;-5.80;99.90;;;;;;5033177;28;20210;-68
2021/11/30 12:26:28;;;;;;;0.80;0.80;;;-5.80;99.90;;;;;;5034420;28;20209;-68
2021/11/30 12:28:54;;;;;;;0.93;0.93;;;-5.80;99.90;;;;;;5033126;28;20386;-68
2021/11/30 12:31:35;;;;;;;0.90;0.90;;;-5.80;99.90;;;;;;5032830;28;20740;-68
2021/11/30 12:34:02;;;;;;;0.90;0.90;;;-5.90;99.90;;;;;;5033002;28;20190;-68
2021/11/30 12:36:34;;;;;;;0.90;0.90;;;-5.90;99.90;;;;;;5032761;28;20201;-68
2021/11/30 12:39:02;;;;;;;1.00;1.00;;;-5.90;99.90;;;;;;5015266;28;20202;-69
2021/11/30 12:41:42;;;;;;;0.90;0.90;;;-5.90;99.90;;;;;;5014641;28;20234;-68
2021/11/30 12:44:17;;;;;;;0.90;0.90;;;-5.90;99.90;;;;;;5034317;28;20309;-68
2021/11/30 12:46:47;;;;;;;0.90;0.90;;;-6.00;99.90;;;;;;5032537;28;20214;-68
2021/11/30 12:49:25;;;;;;;0.90;0.90;;;-5.90;99.90;;;;;;5034049;28;20594;-68
2021/11/30 12:52:14;;;;;;;0.90;0.90;;;-6.00;99.90;;;;;;5034036;28;20205;-68
2021/11/30 12:54:49;;;;;;;0.90;0.90;;;-6.00;99.90;;;;;;5032539;28;20233;-68
2021/11/30 12:57:31;;;;;;;0.90;0.90;;;-6.00;99.90;;;;;;5033704;28;20217;-68
2021/11/30 13:00:01;;;;;;;0.90;0.90;;;-6.00;99.90;;;;;;5032592;28;20603;-67
2021/11/30 13:02:35;;;;;;;1.00;1.00;;;-6.00;99.90;;;;;;5031738;28;20658;-68
2021/11/30 13:05:17;;;;;;;1.00;1.00;;;-6.00;99.90;;;;;;5032580;28;20202;-68
2021/11/30 13:07:49;;;;;;;0.90;0.90;;;-6.10;99.90;;;;;;5033354;28;20222;-68
2021/11/30 13:10:33;;;;;;;1.53;1.43;;;-6.10;99.90;;;;;;5032189;28;20598;-68
2021/11/30 13:13:02;;;;;;;0.93;0.93;;;-6.10;99.90;;;;;;5031737;28;20198;-68